createdAt,value
2023-04-03T00:02:33.029Z,6.94
2023-04-03T00:07:26.554Z,7.28
2023-04-03T00:17:26.624Z,7.20
2023-04-03T00:22:21.449Z,7.23
2023-04-03T00:27:15.120Z,7.21
2023-04-03T00:32:08.519Z,7.27
2023-04-03T00:37:02.016Z,7.53
2023-04-03T00:41:57.201Z,7.44
2023-04-03T00:46:50.631Z,7.22
2023-04-03T00:56:54.708Z,6.98
2023-04-03T01:01:50.742Z,6.95
2023-04-03T01:22:21.766Z,6.89
2023-04-03T01:42:37.715Z,6.80
2023-04-03T01:47:31.191Z,6.95
2023-04-03T01:52:24.930Z,6.75
2023-04-03T01:57:18.317Z,6.95
2023-04-03T02:02:15.648Z,6.45
2023-04-03T02:07:09.369Z,6.94
2023-04-03T02:27:13.407Z,6.55
2023-04-03T02:32:07.663Z,6.69
2023-04-03T02:37:01.078Z,6.52
2023-04-03T02:47:03.900Z,6.21
2023-04-03T02:51:57.278Z,6.05
2023-04-03T02:56:50.730Z,6.14
2023-04-03T03:06:49.121Z,6.69
2023-04-03T03:11:43.984Z,6.23
2023-04-03T03:21:43.148Z,6.10
2023-04-03T03:26:36.731Z,5.88
2023-04-03T03:31:31.735Z,6.01
2023-04-03T03:46:34.667Z,5.89
2023-04-03T03:51:28.123Z,5.73
2023-04-03T03:56:21.587Z,5.52
2023-04-03T04:01:15.229Z,5.44
2023-04-03T04:06:10.325Z,5.32
2023-04-03T04:11:03.704Z,5.53
2023-04-03T04:15:57.051Z,5.56
2023-04-03T04:20:50.592Z,5.30
2023-04-03T04:25:49.877Z,5.76
2023-04-03T04:30:47.436Z,5.62
2023-04-03T04:35:45.502Z,5.34
2023-04-03T04:40:39.453Z,5.40
2023-04-03T04:45:34.559Z,5.41
2023-04-03T04:50:28.100Z,5.41
2023-04-03T05:05:41.769Z,5.38
2023-04-03T05:10:35.320Z,5.30
2023-04-03T05:15:28.723Z,5.31
2023-04-03T05:20:22.133Z,5.39
2023-04-03T05:25:17.184Z,5.41
2023-04-03T05:30:12.131Z,5.27
2023-04-03T05:35:06.848Z,5.39
2023-04-03T05:40:00.380Z,5.55
2023-04-03T05:44:55.224Z,5.04
2023-04-03T05:49:48.749Z,5.07
2023-04-03T05:54:42.604Z,4.79
2023-04-03T05:59:36.177Z,4.89
2023-04-03T06:04:31.676Z,4.92
2023-04-03T06:09:29.909Z,5.19
2023-04-03T06:14:23.523Z,5.30
2023-04-03T06:19:17.331Z,5.61
2023-04-03T06:24:18.699Z,5.33
2023-04-03T06:29:12.477Z,5.41
2023-04-03T06:34:09.241Z,5.46
2023-04-03T06:39:04.112Z,5.57
2023-04-03T06:43:59.473Z,6.02
2023-04-03T06:48:53.365Z,5.71
2023-04-03T06:53:47.015Z,5.82
2023-04-03T06:58:40.843Z,5.66
2023-04-03T07:03:36.648Z,5.85
2023-04-03T07:08:30.276Z,5.61
2023-04-03T07:13:43.964Z,5.53
2023-04-03T07:18:39.018Z,5.71
2023-04-03T07:23:34.851Z,5.89
2023-04-03T07:28:28.266Z,5.83
2023-04-03T07:33:24.596Z,5.58
2023-04-03T07:38:19.912Z,5.82
2023-04-03T07:43:13.525Z,6.06
2023-04-03T07:48:07.814Z,6.34
2023-04-03T07:53:01.844Z,5.97
2023-04-03T07:57:56.675Z,6.27
2023-04-03T08:02:52.627Z,6.25
2023-04-03T08:07:46.427Z,6.26
2023-04-03T08:12:39.845Z,6.26
2023-04-03T08:17:34.722Z,6.28
2023-04-03T08:22:28.330Z,6.11
2023-04-03T08:27:22.169Z,6.00
2023-04-03T08:32:15.588Z,5.92
2023-04-03T08:37:10.499Z,5.88
2023-04-03T08:42:16.802Z,6.07
2023-04-03T08:47:26.307Z,6.33
2023-04-03T08:52:28.899Z,6.36
2023-04-03T08:57:35.431Z,6.22
2023-04-03T09:02:35.869Z,6.12
2023-04-03T09:07:41.459Z,6.34
2023-04-03T09:12:41.334Z,6.24
2023-04-03T09:17:55.376Z,6.49
2023-04-03T09:22:53.046Z,6.45
2023-04-03T09:27:47.117Z,6.68
2023-04-03T09:32:42.712Z,6.57
2023-04-03T09:37:42.627Z,6.48
2023-04-03T09:42:46.466Z,6.59
2023-04-03T09:47:45.261Z,6.53
2023-04-03T09:52:41.359Z,6.93
2023-04-03T09:57:37.166Z,7.22
2023-04-03T10:02:53.736Z,6.93
2023-04-03T10:07:54.734Z,7.09
2023-04-03T10:13:12.296Z,7.29
2023-04-03T10:18:28.695Z,7.41
2023-04-03T10:23:29.471Z,7.25
2023-04-03T10:28:32.088Z,7.08
2023-04-03T10:33:58.042Z,6.75
2023-04-03T10:39:05.081Z,7.38
2023-04-03T10:44:18.126Z,7.61
2023-04-03T10:49:36.563Z,7.37
2023-04-03T10:54:41.177Z,7.11
2023-04-03T10:59:40.937Z,7.39
2023-04-03T11:04:41.497Z,7.56
2023-04-03T11:09:40.576Z,7.34
2023-04-03T11:14:39.147Z,7.46
2023-04-03T11:19:40.766Z,7.75
2023-04-03T11:24:39.494Z,7.71
2023-04-03T11:29:40.998Z,7.70
2023-04-03T11:34:44.357Z,7.57
2023-04-03T11:39:37.564Z,7.53
2023-04-03T11:44:38.799Z,7.53
2023-04-03T11:49:57.882Z,7.57
2023-04-03T11:54:51.618Z,7.45
2023-04-03T11:59:46.343Z,7.41
2023-04-03T12:04:39.881Z,7.55
2023-04-03T12:10:31.829Z,7.47
2023-04-03T12:15:52.394Z,7.63
2023-04-03T12:26:28.285Z,7.56
2023-04-03T12:31:44.902Z,7.54
2023-04-03T12:42:01.489Z,7.64
2023-04-03T12:46:56.702Z,7.75
2023-04-03T13:02:04.517Z,7.76
2023-04-03T13:17:22.290Z,7.96
2023-04-03T13:22:30.999Z,7.84
2023-04-03T13:32:35.821Z,7.92
2023-04-03T13:37:33.462Z,7.81
2023-04-03T13:42:31.362Z,7.79
2023-04-03T13:47:26.317Z,8.11
2023-04-03T13:52:33.611Z,8.16
2023-04-03T14:02:36.471Z,7.88
2023-04-03T14:12:41.752Z,7.84
2023-04-03T14:22:42.772Z,7.93
2023-04-03T14:27:41.596Z,7.94
2023-04-03T14:37:41.798Z,7.70
2023-04-03T14:42:39.039Z,7.48
2023-04-03T14:52:39.103Z,7.48
2023-04-03T14:57:34.608Z,7.66
2023-04-03T15:02:37.571Z,7.68
2023-04-03T15:07:35.854Z,7.68
2023-04-03T15:12:29.171Z,7.69
2023-04-03T15:17:25.134Z,7.60
2023-04-03T15:22:22.172Z,7.62
2023-04-03T15:37:31.188Z,7.47
2023-04-03T15:52:28.047Z,7.17
2023-04-03T15:57:27.080Z,7.26
2023-04-03T16:02:20.970Z,7.21
2023-04-03T16:07:14.462Z,7.24
2023-04-03T16:12:07.928Z,7.19
2023-04-03T16:17:03.299Z,7.19
2023-04-03T16:21:57.421Z,7.17
2023-04-03T16:31:58.546Z,7.20
2023-04-03T16:36:53.792Z,7.22
2023-04-03T16:41:47.997Z,7.11
2023-04-03T16:46:41.608Z,6.93
2023-04-03T16:56:43.878Z,6.86
2023-04-03T17:01:40.444Z,6.88
2023-04-03T17:06:34.093Z,6.98
2023-04-03T17:11:27.876Z,6.86
2023-04-03T17:16:23.546Z,6.83
2023-04-03T17:21:18.909Z,6.69
2023-04-03T17:26:12.586Z,6.81
2023-04-03T17:31:06.254Z,6.86
2023-04-03T17:36:04.603Z,6.58
2023-04-03T17:46:09.169Z,6.47
2023-04-03T17:51:08.419Z,6.42
2023-04-03T17:56:07.966Z,6.29
2023-04-03T18:01:01.310Z,6.31
2023-04-03T18:05:55.563Z,6.32
2023-04-03T18:10:50.882Z,6.38
2023-04-03T18:15:45.898Z,6.32
2023-04-03T18:20:39.606Z,6.37
2023-04-03T18:30:29.644Z,6.15
2023-04-03T18:35:22.910Z,6.01
2023-04-03T18:40:16.645Z,5.94
2023-04-03T18:45:15.582Z,6.08
2023-04-03T18:50:11.795Z,6.04
2023-04-03T18:55:06.686Z,6.05
2023-04-03T19:00:00.471Z,6.19
2023-04-03T19:04:55.939Z,6.23
2023-04-03T19:09:50.946Z,6.02
2023-04-03T19:14:44.607Z,6.19
2023-04-03T19:19:38.013Z,6.23
2023-04-03T19:24:31.748Z,6.14
2023-04-03T19:29:26.560Z,6.09
2023-04-03T19:34:20.064Z,6.04
2023-04-03T19:39:15.472Z,5.93
2023-04-03T19:44:10.480Z,5.72
2023-04-03T19:49:06.230Z,5.74
2023-04-03T19:53:59.664Z,5.89
2023-04-03T19:58:54.810Z,5.72
2023-04-03T20:03:48.258Z,5.64
2023-04-03T20:08:43.702Z,5.68
2023-04-03T20:13:38.549Z,5.70
2023-04-03T20:18:32.581Z,5.66
2023-04-03T20:23:27.312Z,5.48
2023-04-03T20:28:23.141Z,5.50
2023-04-03T20:33:16.556Z,5.42
2023-04-03T20:38:09.899Z,5.22
2023-04-03T20:43:03.316Z,5.34
2023-04-03T20:47:58.331Z,5.59
2023-04-03T20:52:51.647Z,5.19
2023-04-03T20:57:54.320Z,5.32
2023-04-03T21:02:48.936Z,5.19
2023-04-03T21:08:38.294Z,5.17
2023-04-03T21:14:32.603Z,5.11
2023-04-03T21:19:27.302Z,5.24
2023-04-03T21:24:21.309Z,5.18
2023-04-03T21:29:14.967Z,4.98
2023-04-03T21:34:08.190Z,5.05
2023-04-03T21:39:03.421Z,4.67
2023-04-03T21:43:57.146Z,4.88
2023-04-03T21:48:50.838Z,4.81
2023-04-03T21:53:44.923Z,4.76
2023-04-03T21:58:39.675Z,4.88
2023-04-03T22:03:34.865Z,4.98
2023-04-03T22:08:28.237Z,4.78
2023-04-03T22:13:21.764Z,4.64
2023-04-03T22:18:16.818Z,4.73
2023-04-03T22:23:10.423Z,4.80
2023-04-03T22:28:03.688Z,4.94
2023-04-03T22:32:57.018Z,4.68
2023-04-03T22:37:52.232Z,4.80
2023-04-03T22:42:48.259Z,4.45
2023-04-03T22:47:41.729Z,4.59
2023-04-03T22:52:35.199Z,4.41
2023-04-03T22:57:30.019Z,4.58
2023-04-03T23:02:23.507Z,4.19
2023-04-03T23:07:17.377Z,4.31
2023-04-03T23:12:10.952Z,4.20
2023-04-03T23:17:06.687Z,4.00
2023-04-03T23:22:00.051Z,4.19
2023-04-03T23:26:53.631Z,4.23
2023-04-03T23:31:47.116Z,4.04
2023-04-03T23:36:41.940Z,3.65
2023-04-03T23:41:35.527Z,3.73
2023-04-03T23:46:28.904Z,3.57
2023-04-03T23:51:22.282Z,3.79
2023-04-03T23:56:17.419Z,3.71
